Clima

HORA PREDICCIÓN TEMPERATURA VIENTO HUMEDAD
2020-06-03 01:00:00 Despejado 4 5.5 0.62
2020-06-03 02:00:00 Despejado 3 5.13 0.66
2020-06-03 03:00:00 Despejado 2 5.29 0.69
2020-06-03 04:00:00 Despejado 2 5.64 0.71
2020-06-03 05:00:00 Despejado 2 5.95 0.7
2020-06-03 06:00:00 Despejado 2 5.8 0.66
2020-06-03 07:00:00 Despejado 2 5.65 0.6
2020-06-03 08:00:00 Despejado 4 6.4 0.53
2020-06-03 09:00:00 Despejado 7 8.92 0.44
2020-06-03 10:00:00 Despejado 11 12.67 0.35
2020-06-03 11:00:00 Despejado 15 16.26 0.27
2020-06-03 12:00:00 Despejado 17 19.1 0.22
2020-06-03 13:00:00 Despejado 18 21.43 0.2
2020-06-03 14:00:00 Despejado 18 22.71 0.19
2020-06-03 15:00:00 Despejado 18 22.89 0.19
2020-06-03 16:00:00 Despejado 18 22 0.2
2020-06-03 17:00:00 Despejado 17 19.7 0.23
2020-06-03 18:00:00 Despejado 15 15.03 0.29
2020-06-03 19:00:00 Despejado 13 9.28 0.36
2020-06-03 20:00:00 Despejado 11 5.09 0.43
2020-06-03 21:00:00 Despejado 9 3.52 0.48
2020-06-03 22:00:00 Despejado 8 3.22 0.51
2020-06-03 23:00:00 Despejado 6 3.11 0.56